Time;durP1;ratioP1;P1;durP2;ratioP2;P2;SDS_P1;SDS_P2;PMS_P1;PMS_P2;Temp;Humidity;BMP_temperature;BMP_pressure;BME280_temperature;BME280_humidity;BME280_pressure;Samples;Min_cycle;Max_cycle;Signal;HPM_P1;HPM_P2
2021/04/10 00:01:00;;;;;;;;;;;;;;;6.70;66.31;93536.22;5093100;28;19919;-76
2021/04/10 00:03:25;;;;;;;;;;;;;;;6.79;68.26;93535.09;5092960;28;19927;-76
2021/04/10 00:05:52;;;;;;;;;;;;;;;6.81;68.45;93527.91;5092978;28;20007;-76
2021/04/10 00:08:18;;;;;;;;;;;;;;;6.82;67.33;93532.94;5092916;28;20018;-76
2021/04/10 00:10:44;;;;;;;;;;;;;;;6.93;65.77;93521.28;5093122;28;20002;-76
2021/04/10 00:13:10;;;;;;;;;;;;;;;7.09;64.36;93535.00;5095782;28;19966;-75
2021/04/10 00:15:36;;;;;;;;;;;;;;;7.27;62.97;93529.38;5096522;28;20386;-76
2021/04/10 00:18:02;;;;;;;;;;;;;;;7.57;61.07;93520.44;5096567;28;19970;-76
2021/04/10 00:20:28;;;;;;;;;;;;;;;7.61;63.66;93523.47;5096469;28;20374;-75
2021/04/10 00:22:54;;;;;;;;;;;;;;;7.68;62.26;93529.53;5096347;28;19920;-77
2021/04/10 00:25:20;;;;;;;;;;;;;;;7.56;63.30;93525.81;5096595;28;19920;-77
2021/04/10 00:27:46;;;;;;;;;;;;;;;7.64;62.61;93517.88;5096362;28;19924;-77
2021/04/10 00:30:13;;;;;;;;;;;;;;;7.81;60.38;93525.41;5096545;28;19927;-77
2021/04/10 00:32:39;;;;;;;;;;;;;;;8.04;59.45;93522.56;5096347;28;19928;-77
2021/04/10 00:35:06;;;;;;;;;;;;;;;8.34;59.66;93513.53;5096319;28;20367;-77
2021/04/10 00:37:34;;;;;;;;;;;;;;;8.22;60.25;93514.25;5096008;28;19946;-77
2021/04/10 00:40:00;;;;;;;;;;;;;;;8.27;58.01;93517.09;5096302;28;19920;-76
2021/04/10 00:42:26;;;;;;;;;;;;;;;8.29;60.49;93517.69;5096212;28;19965;-76
2021/04/10 00:44:52;;;;;;;;;;;;;;;8.29;59.36;93513.31;5096164;28;20303;-76
2021/04/10 00:47:18;;;;;;;;;;;;;;;8.25;59.70;93509.47;5095876;28;19966;-76
2021/04/10 00:49:44;;;;;;;;;;;;;;;8.47;57.80;93517.19;5095873;28;19927;-77
2021/04/10 00:52:10;;;;;;;;;;;;;;;8.43;58.01;93519.41;5096105;28;19949;-76
2021/04/10 00:54:37;;;;;;;;;;;;;;;8.30;57.69;93511.50;5095938;28;19943;-76
2021/04/10 00:57:09;;;;;;;;;;;;;;;8.46;56.84;93513.00;5095784;28;19920;-76
2021/04/10 00:59:35;;;;;;;;;;;;;;;8.39;56.70;93519.94;5095761;28;19942;-76
2021/04/10 01:02:02;;;;;;;;;;;;;;;8.61;56.74;93518.06;5095745;28;19923;-76
2021/04/10 01:04:28;;;;;;;;;;;;;;;8.44;56.79;93510.59;5095589;28;19923;-74
2021/04/10 01:06:54;;;;;;;;;;;;;;;8.22;57.30;93498.66;5095758;28;19972;-76
2021/04/10 01:09:20;;;;;;;;;;;;;;;8.12;57.58;93505.00;5095765;28;20010;-76
2021/04/10 01:11:52;;;;;;;;;;;;;;;8.04;57.62;93506.97;5095597;28;19938;-76
2021/04/10 01:14:23;;;;;;;;;;;;;;;7.87;57.76;93501.25;5095438;28;19920;-74
2021/04/10 01:16:52;;;;;;;;;;;;;;;7.99;57.83;93499.72;5095404;28;19920;-77
2021/04/10 01:19:27;;;;;;;;;;;;;;;8.15;57.32;93499.41;5095311;28;19927;-77
2021/04/10 01:21:55;;;;;;;;;;;;;;;8.37;56.88;93501.91;5095412;28;20023;-76
2021/04/10 01:24:35;;;;;;;;;;;;;;;8.51;56.57;93498.41;5094498;28;20486;-77
2021/04/10 01:27:13;;;;;;;;;;;;;;;8.75;55.33;93496.28;5095252;28;20297;-76
2021/04/10 01:29:42;;;;;;;;;;;;;;;8.95;54.06;93493.72;5095069;28;19926;-77
2021/04/10 01:32:08;;;;;;;;;;;;;;;9.06;54.48;93495.75;5094944;28;20371;-77
2021/04/10 01:34:37;;;;;;;;;;;;;;;9.12;53.25;93499.38;5095103;28;19934;-76
2021/04/10 01:37:04;;;;;;;;;;;;;;;9.11;53.31;93482.16;5095185;28;19927;-76
2021/04/10 01:39:32;;;;;;;;;;;;;;;9.17;53.30;93496.19;5094461;28;20029;-74
2021/04/10 01:41:58;;;;;;;;;;;;;;;9.11;53.46;93496.97;5094789;28;19920;-77
2021/04/10 01:44:25;;;;;;;;;;;;;;;9.13;52.97;93490.56;5095169;28;19920;-77
2021/04/10 01:46:52;;;;;;;;;;;;;;;9.15;53.07;93493.75;5094959;28;19924;-76
2021/04/10 01:49:18;;;;;;;;;;;;;;;9.05;53.02;93491.53;5094931;28;19920;-76
2021/04/10 01:51:44;;;;;;;;;;;;;;;9.01;52.74;93486.91;5094766;28;19919;-76
2021/04/10 01:54:10;;;;;;;;;;;;;;;8.85;53.51;93488.09;5094626;28;20286;-77
2021/04/10 01:56:37;;;;;;;;;;;;;;;8.99;53.11;93494.13;5094550;28;20423;-76
2021/04/10 01:59:03;;;;;;;;;;;;;;;9.16;51.02;93487.56;5094838;28;19920;-76
2021/04/10 02:01:30;;;;;;;;;;;;;;;9.08;51.54;93490.34;5094638;28;19924;-77
2021/04/10 02:03:57;;;;;;;;;;;;;;;8.99;51.95;93494.97;5094516;28;19920;-76
2021/04/10 02:06:24;;;;;;;;;;;;;;;8.83;52.87;93496.13;5094483;28;19927;-76
2021/04/10 02:08:51;;;;;;;;;;;;;;;8.67;53.64;93491.25;5094443;28;19920;-76
2021/04/10 02:11:18;;;;;;;;;;;;;;;8.52;53.96;93494.81;5094307;28;19927;-77
2021/04/10 02:13:44;;;;;;;;;;;;;;;8.50;53.00;93491.59;5094325;28;19920;-77
2021/04/10 02:16:10;;;;;;;;;;;;;;;8.81;51.71;93498.13;5094430;28;20275;-76
2021/04/10 02:18:35;;;;;;;;;;;;;;;8.80;52.04;93501.72;5094363;28;19920;-76
2021/04/10 02:21:06;;;;;;;;;;;;;;;8.59;52.85;93500.03;5094169;28;19967;-76
2021/04/10 02:23:32;;;;;;;;;;;;;;;8.36;53.98;93499.50;5094131;28;19920;-76
2021/04/10 02:25:59;;;;;;;;;;;;;;;8.39;54.11;93504.34;5094268;28;19974;-76
2021/04/10 02:28:25;;;;;;;;;;;;;;;8.57;53.33;93501.22;5094239;28;19927;-77
2021/04/10 02:30:50;;;;;;;;;;;;;;;8.62;53.08;93496.25;5094162;28;19924;-77
2021/04/10 02:33:19;;;;;;;;;;;;;;;8.43;54.10;93498.59;5093870;28;19927;-75
2021/04/10 02:35:45;;;;;;;;;;;;;;;8.54;52.22;93505.00;5093682;28;19920;-76
2021/04/10 02:38:13;;;;;;;;;;;;;;;8.51;53.95;93488.00;5093756;28;19924;-76
2021/04/10 02:40:39;;;;;;;;;;;;;;;8.49;52.76;93499.59;5094345;28;19946;-77
2021/04/10 02:43:07;;;;;;;;;;;;;;;8.19;54.05;93496.44;5093978;28;20393;-77
2021/04/10 02:45:33;;;;;;;;;;;;;;;8.19;53.76;93502.44;5093894;28;19934;-77
2021/04/10 02:48:02;;;;;;;;;;;;;;;8.23;53.12;93505.47;5093842;28;19920;-76
2021/04/10 02:50:29;;;;;;;;;;;;;;;8.34;52.91;93504.91;5093701;28;19920;-77
2021/04/10 02:52:56;;;;;;;;;;;;;;;8.41;52.83;93492.75;5093595;28;19920;-76
2021/04/10 02:55:28;;;;;;;;;;;;;;;8.60;51.69;93501.66;5093795;28;19920;-76
2021/04/10 02:57:55;;;;;;;;;;;;;;;8.57;52.37;93502.03;5093773;28;19920;-76
2021/04/10 03:00:21;;;;;;;;;;;;;;;8.52;52.03;93504.41;5093742;28;19985;-77
2021/04/10 03:02:47;;;;;;;;;;;;;;;8.46;52.65;93500.81;5093537;28;19920;-75
2021/04/10 03:05:13;;;;;;;;;;;;;;;8.48;52.24;93504.00;5093520;28;20364;-76
2021/04/10 03:07:43;;;;;;;;;;;;;;;8.40;52.45;93504.13;5093683;28;19943;-75
2021/04/10 03:10:09;;;;;;;;;;;;;;;8.33;52.73;93505.91;5093648;28;19949;-76
2021/04/10 03:12:36;;;;;;;;;;;;;;;8.54;52.43;93501.63;5093519;28;19990;-76
2021/04/10 03:15:02;;;;;;;;;;;;;;;8.65;51.80;93498.47;5093428;28;19920;-78
2021/04/10 03:17:28;;;;;;;;;;;;;;;8.64;51.93;93508.09;5093415;28;19927;-77
2021/04/10 03:19:55;;;;;;;;;;;;;;;8.66;51.75;93513.06;5093284;28;20290;-76
2021/04/10 03:22:20;;;;;;;;;;;;;;;8.67;52.35;93501.66;5093606;28;19973;-76
2021/04/10 03:24:46;;;;;;;;;;;;;;;8.69;51.59;93504.88;5093278;28;20022;-76
2021/04/10 03:27:13;;;;;;;;;;;;;;;8.61;52.14;93512.84;5093387;28;20068;-77
2021/04/10 03:29:40;;;;;;;;;;;;;;;8.57;52.66;93512.44;5093889;28;19924;-77
2021/04/10 03:32:06;;;;;;;;;;;;;;;8.51;53.67;93514.03;5092664;28;20280;-77
2021/04/10 03:34:33;;;;;;;;;;;;;;;8.54;52.64;93515.41;5093243;28;19938;-77
2021/04/10 03:36:59;;;;;;;;;;;;;;;8.44;54.29;93513.22;5093395;28;19989;-77
2021/04/10 03:39:25;;;;;;;;;;;;;;;8.63;52.11;93513.47;5093350;28;20030;-76
2021/04/10 03:41:51;;;;;;;;;;;;;;;8.61;52.87;93518.88;5093262;28;19998;-76
2021/04/10 03:44:17;;;;;;;;;;;;;;;8.59;53.01;93520.84;5093056;28;19920;-76
2021/04/10 03:46:44;;;;;;;;;;;;;;;8.71;52.40;93518.50;5093433;28;19928;-76
2021/04/10 03:49:10;;;;;;;;;;;;;;;8.68;53.16;93518.91;5097077;28;19927;-77
2021/04/10 03:51:35;;;;;;;;;;;;;;;8.78;52.50;93524.53;5097425;28;19920;-77
2021/04/10 03:54:02;;;;;;;;;;;;;;;8.79;51.98;93513.13;5097045;28;20278;-76
2021/04/10 03:56:28;;;;;;;;;;;;;;;8.79;52.41;93513.13;5097103;28;19920;-77
2021/04/10 03:58:54;;;;;;;;;;;;;;;8.76;52.76;93515.31;5097040;28;20016;-77
2021/04/10 04:01:19;;;;;;;;;;;;;;;8.72;53.36;93517.50;5096965;28;19920;-75
2021/04/10 04:03:46;;;;;;;;;;;;;;;8.72;52.82;93509.69;5096833;28;19920;-76
2021/04/10 04:06:12;;;;;;;;;;;;;;;8.66;53.50;93526.06;5096961;28;19928;-76
2021/04/10 04:08:38;;;;;;;;;;;;;;;8.70;53.36;93527.31;5096765;28;19920;-77
2021/04/10 04:11:03;;;;;;;;;;;;;;;8.68;53.22;93522.28;5096777;28;20375;-76
2021/04/10 04:13:29;;;;;;;;;;;;;;;8.59;54.09;93530.47;5096691;28;19966;-76
2021/04/10 04:15:55;;;;;;;;;;;;;;;8.55;53.94;93530.06;5096504;28;19927;-74
2021/04/10 04:18:21;;;;;;;;;;;;;;;8.67;52.84;93527.69;5096442;28;19924;-77
2021/04/10 04:20:48;;;;;;;;;;;;;;;8.63;53.76;93522.06;5096652;28;20056;-77
2021/04/10 04:23:13;;;;;;;;;;;;;;;8.63;54.15;93529.88;5096559;28;19927;-77
2021/04/10 04:25:39;;;;;;;;;;;;;;;8.58;54.31;93534.06;5096563;28;19920;-77
2021/04/10 04:28:05;;;;;;;;;;;;;;;8.67;53.85;93532.91;5096423;28;19920;-77
2021/04/10 04:30:31;;;;;;;;;;;;;;;8.67;53.33;93540.69;5096481;28;19930;-76
2021/04/10 04:32:57;;;;;;;;;;;;;;;8.64;53.97;93543.69;5096224;28;19955;-76
2021/04/10 04:35:23;;;;;;;;;;;;;;;8.65;54.18;93538.28;5096389;28;19920;-76
2021/04/10 04:37:50;;;;;;;;;;;;;;;8.60;53.90;93542.47;5096260;28;19963;-76
2021/04/10 04:40:16;;;;;;;;;;;;;;;8.59;54.41;93541.66;5096183;28;19927;-76
2021/04/10 04:42:41;;;;;;;;;;;;;;;8.62;54.29;93545.69;5096042;28;19924;-77
2021/04/10 04:45:08;;;;;;;;;;;;;;;8.47;55.06;93544.00;5096011;28;19926;-76
2021/04/10 04:47:34;;;;;;;;;;;;;;;8.43;55.19;93536.81;5095967;28;19927;-76
2021/04/10 04:49:59;;;;;;;;;;;;;;;8.41;57.16;93547.38;5096210;28;20007;-75
2021/04/10 04:52:27;;;;;;;;;;;;;;;8.44;56.51;93544.41;5096064;28;19920;-76
2021/04/10 04:54:54;;;;;;;;;;;;;;;8.41;56.32;93549.97;5095939;28;20320;-76
2021/04/10 04:57:20;;;;;;;;;;;;;;;8.41;57.00;93556.97;5095841;28;19923;-76
2021/04/10 04:59:46;;;;;;;;;;;;;;;8.50;56.68;93556.63;5094383;28;20017;-77
2021/04/10 05:02:11;;;;;;;;;;;;;;;8.51;56.27;93547.84;5095883;28;19927;-77
2021/04/10 05:04:37;;;;;;;;;;;;;;;8.43;57.52;93552.41;5095604;28;19920;-75
2021/04/10 05:07:03;;;;;;;;;;;;;;;8.43;57.19;93550.63;5095756;28;19926;-77
2021/04/10 05:09:29;;;;;;;;;;;;;;;8.41;57.64;93562.97;5095676;28;19923;-76
2021/04/10 05:11:56;;;;;;;;;;;;;;;8.31;58.59;93570.31;5095608;28;19919;-76
2021/04/10 05:14:21;;;;;;;;;;;;;;;8.23;60.45;93573.09;5095335;28;19923;-77
2021/04/10 05:16:47;;;;;;;;;;;;;;;8.20;59.57;93568.25;5095701;28;19920;-76
2021/04/10 05:19:13;;;;;;;;;;;;;;;8.23;59.44;93571.28;5095584;28;20389;-76
2021/04/10 05:21:39;;;;;;;;;;;;;;;8.21;59.42;93572.44;5095465;28;19943;-77
2021/04/10 05:24:05;;;;;;;;;;;;;;;8.22;60.87;93571.47;5095353;28;19920;-76
2021/04/10 05:26:31;;;;;;;;;;;;;;;8.13;60.82;93576.81;5094813;28;19926;-76
2021/04/10 05:28:58;;;;;;;;;;;;;;;8.11;60.66;93585.78;5094962;28;19927;-76
2021/04/10 05:31:24;;;;;;;;;;;;;;;8.05;62.03;93576.97;5095242;28;19953;-76
2021/04/10 05:33:49;;;;;;;;;;;;;;;8.04;60.98;93583.13;5095293;28;19920;-77
2021/04/10 05:36:15;;;;;;;;;;;;;;;8.02;62.13;93589.53;5095106;28;19927;-76
2021/04/10 05:38:41;;;;;;;;;;;;;;;8.04;60.84;93585.75;5095080;28;19923;-75
2021/04/10 05:41:07;;;;;;;;;;;;;;;8.04;61.69;93585.75;5095087;28;19920;-76
2021/04/10 05:43:33;;;;;;;;;;;;;;;8.01;61.86;93586.16;5094868;28;19920;-75
2021/04/10 05:45:59;;;;;;;;;;;;;;;8.02;63.22;93579.13;5094916;28;19920;-76
2021/04/10 05:48:25;;;;;;;;;;;;;;;8.04;62.54;93575.34;5095179;28;19920;-76
2021/04/10 05:50:51;;;;;;;;;;;;;;;8.14;61.97;93577.59;5094726;28;20026;-76
2021/04/10 05:53:17;;;;;;;;;;;;;;;8.21;61.64;93575.06;5094880;28;19920;-75
2021/04/10 05:55:42;;;;;;;;;;;;;;;8.19;62.68;93577.84;5094871;28;20003;-76
2021/04/10 05:58:08;;;;;;;;;;;;;;;8.22;62.15;93577.47;5094796;28;19920;-75
2021/04/10 06:00:34;;;;;;;;;;;;;;;8.32;61.56;93582.31;5094885;28;19920;-76
2021/04/10 06:03:00;;;;;;;;;;;;;;;8.25;62.48;93573.69;5094535;28;20375;-76
2021/04/10 06:05:26;;;;;;;;;;;;;;;8.26;62.04;93577.88;5094661;28;19920;-75
2021/04/10 06:07:52;;;;;;;;;;;;;;;8.25;61.88;93578.91;5094625;28;19924;-75
2021/04/10 06:10:18;;;;;;;;;;;;;;;8.29;62.77;93578.31;5094043;28;20003;-76
2021/04/10 06:12:44;;;;;;;;;;;;;;;8.25;61.41;93581.50;5094276;28;20432;-75
2021/04/10 06:15:11;;;;;;;;;;;;;;;8.24;61.71;93585.06;5094393;28;19920;-76
2021/04/10 06:17:37;;;;;;;;;;;;;;;8.29;61.32;93593.94;5094506;28;19920;-75
2021/04/10 06:20:05;;;;;;;;;;;;;;;8.28;62.63;93588.91;5094405;28;19928;-75
2021/04/10 06:22:31;;;;;;;;;;;;;;;8.38;61.40;93591.97;5094240;28;19924;-75
2021/04/10 06:24:57;;;;;;;;;;;;;;;8.45;61.09;93600.63;5094219;28;20283;-75
2021/04/10 06:27:23;;;;;;;;;;;;;;;8.57;62.03;93598.31;5094110;28;19920;-75
2021/04/10 06:29:49;;;;;;;;;;;;;;;8.59;60.02;93598.13;5094466;28;20332;-75
2021/04/10 06:32:14;;;;;;;;;;;;;;;8.48;60.83;93600.25;5093994;28;19920;-75
2021/04/10 06:34:40;;;;;;;;;;;;;;;8.45;63.13;93600.63;5094031;28;20361;-75
2021/04/10 06:37:07;;;;;;;;;;;;;;;8.47;61.85;93598.66;5094044;28;19927;-76
2021/04/10 06:39:33;;;;;;;;;;;;;;;8.47;62.15;93603.06;5094059;28;19942;-75
2021/04/10 06:41:59;;;;;;;;;;;;;;;8.51;62.87;93597.28;5093948;28;19920;-75
2021/04/10 06:44:25;;;;;;;;;;;;;;;8.48;63.25;93592.47;5094227;28;20371;-75
2021/04/10 06:46:51;;;;;;;;;;;;;;;8.52;63.63;93590.28;5093907;28;19920;-75
2021/04/10 06:49:18;;;;;;;;;;;;;;;8.62;61.64;93592.53;5093738;28;19920;-75
2021/04/10 06:51:44;;;;;;;;;;;;;;;8.62;63.41;93595.94;5093868;28;19972;-75
2021/04/10 06:54:14;;;;;;;;;;;;;;;8.74;62.37;93596.19;5093635;28;20326;-75
2021/04/10 06:56:44;;;;;;;;;;;;;;;8.69;64.82;93601.16;5093802;28;19920;-75
2021/04/10 06:59:12;;;;;;;;;;;;;;;8.87;62.29;93601.44;5093689;28;19927;-75
2021/04/10 07:01:39;;;;;;;;;;;;;;;8.93;61.76;93602.47;5093705;28;19920;-75
2021/04/10 07:04:06;;;;;;;;;;;;;;;8.98;61.53;93610.50;5093642;28;19973;-75
2021/04/10 07:06:32;;;;;;;;;;;;;;;8.96;62.76;93603.88;5093505;28;20379;-75
2021/04/10 07:08:58;;;;;;;;;;;;;;;9.01;62.64;93606.69;5093414;28;20317;-76
2021/04/10 07:11:24;;;;;;;;;;;;;;;9.01;63.43;93606.69;5093495;28;19924;-75
2021/04/10 07:13:50;;;;;;;;;;;;;;;9.04;61.91;93606.31;5093617;28;19920;-75
2021/04/10 07:16:16;;;;;;;;;;;;;;;9.00;63.17;93603.28;5093311;28;19927;-75
2021/04/10 07:18:43;;;;;;;;;;;;;;;9.07;61.72;93601.50;5093318;28;20299;-76
2021/04/10 07:21:12;;;;;;;;;;;;;;;9.12;63.66;93611.34;5093579;28;19920;-75
2021/04/10 07:23:42;;;;;;;;;;;;;;;9.24;62.61;93609.81;5097067;28;19920;-76
2021/04/10 07:26:08;;;;;;;;;;;;;;;9.48;62.37;93612.06;5097920;28;19927;-76
2021/04/10 07:28:35;;;;;;;;;;;;;;;9.54;61.45;93606.03;5097669;28;19920;-77
2021/04/10 07:31:03;;;;;;;;;;;;;;;9.61;62.38;93612.09;5097614;28;19924;-76
2021/04/10 07:33:29;;;;;;;;;;;;;;;9.90;59.81;93610.09;5097487;28;19920;-74
2021/04/10 07:35:55;;;;;;;;;;;;;;;10.05;59.57;93607.28;5097238;28;20397;-76
2021/04/10 07:38:24;;;;;;;;;;;;;;;9.98;57.89;93604.69;5097306;28;19923;-76
2021/04/10 07:40:50;;;;;;;;;;;;;;;9.94;59.21;93611.28;5097369;28;19920;-76
2021/04/10 07:43:22;;;;;;;;;;;;;;;9.76;60.50;93614.50;5097294;28;19927;-76
2021/04/10 07:45:48;;;;;;;;;;;;;;;9.68;59.60;93612.09;5097304;28;19920;-76
2021/04/10 07:48:17;;;;;;;;;;;;;;;9.79;58.97;93621.91;5097268;28;19920;-76
2021/04/10 07:50:43;;;;;;;;;;;;;;;9.60;58.95;93626.91;5094582;28;19973;-76
2021/04/10 07:53:19;;;;;;;;;;;;;;;9.59;59.51;93630.53;5084353;28;19924;-76
2021/04/10 07:55:45;;;;;;;;;;;;;;;9.58;61.32;93631.50;5096854;28;20286;-76
2021/04/10 07:58:23;;;;;;;;;;;;;;;9.76;60.55;93630.94;5096999;28;19927;-76
2021/04/10 08:00:51;;;;;;;;;;;;;;;9.89;60.49;93627.56;5096888;28;19943;-78
2021/04/10 08:03:29;;;;;;;;;;;;;;;9.81;60.31;93632.97;5096711;28;19978;-76
2021/04/10 08:05:55;;;;;;;;;;;;;;;9.70;59.18;93636.16;5096889;28;19920;-75
2021/04/10 08:08:22;;;;;;;;;;;;;;;9.58;61.69;93631.50;5096929;28;19931;-76
2021/04/10 08:10:48;;;;;;;;;;;;;;;9.73;61.03;93630.56;5096804;28;19920;-76
2021/04/10 08:13:14;;;;;;;;;;;;;;;9.68;61.33;93635.56;5096658;28;19926;-76
2021/04/10 08:15:39;;;;;;;;;;;;;;;9.86;61.09;93629.75;5096422;28;20399;-76
2021/04/10 08:21:00;;;;;;;;;;;;;;;9.88;61.97;93636.38;5111177;27;19969;-76
2021/04/10 08:23:26;;;;;;;;;;;;;;;10.13;61.10;93633.19;5111042;28;20382;-76
2021/04/10 08:25:52;;;;;;;;;;;;;;;10.10;61.76;93631.75;5111059;28;20015;-75
2021/04/10 08:28:18;;;;;;;;;;;;;;;10.16;61.05;93630.19;5111071;28;19924;-76
2021/04/10 08:30:45;;;;;;;;;;;;;;;10.45;60.86;93622.94;5111195;28;19924;-76
2021/04/10 08:33:11;;;;;;;;;;;;;;;10.62;61.43;93620.69;5111005;28;19931;-76
2021/04/10 08:35:37;;;;;;;;;;;;;;;10.82;60.11;93624.06;5110947;28;19923;-76
2021/04/10 08:38:05;;;;;;;;;;;;;;;11.18;58.71;93614.09;5110840;28;19924;-76
2021/04/10 08:40:31;;;;;;;;;;;;;;;11.20;61.23;93614.69;5110616;28;20370;-75
2021/04/10 08:42:58;;;;;;;;;;;;;;;11.35;57.22;93617.03;5110849;28;19924;-76
2021/04/10 08:45:24;;;;;;;;;;;;;;;11.42;58.47;93615.16;5110877;28;19924;-75
2021/04/10 08:47:50;;;;;;;;;;;;;;;11.50;58.92;93624.59;5110718;28;20302;-75
2021/04/10 08:50:17;;;;;;;;;;;;;;;11.81;56.99;93616.75;5110636;28;19950;-75
2021/04/10 08:52:43;;;;;;;;;;;;;;;12.15;58.35;93621.78;5110604;28;19924;-75
2021/04/10 08:55:12;;;;;;;;;;;;;;;12.02;57.04;93623.47;5110455;28;20018;-76
2021/04/10 08:57:39;;;;;;;;;;;;;;;12.12;55.55;93622.97;5110638;28;19923;-76
2021/04/10 09:00:17;;;;;;;;;;;;;;;12.00;58.37;93625.50;5110585;28;19924;-76
2021/04/10 09:02:49;;;;;;;;;;;;;;;11.98;56.76;93614.44;5110580;28;20018;-76
2021/04/10 09:05:15;;;;;;;;;;;;;;;12.34;55.55;93614.75;5110296;28;20367;-76
2021/04/10 09:08:05;;;;;;;;;;;;;;;12.30;56.62;93618.81;5110160;28;20007;-74
2021/04/10 09:10:45;;;;;;;;;;;;;;;12.12;57.93;93617.75;5110451;28;19928;-76
2021/04/10 09:13:24;;;;;;;;;;;;;;;12.24;58.30;93619.69;5110172;28;19928;-76
2021/04/10 09:16:11;;;;;;;;;;;;;;;12.40;58.41;93619.94;5109592;28;20023;-76
2021/04/10 09:18:36;;;;;;;;;;;;;;;12.81;54.84;93620.34;5110524;28;19924;-76
2021/04/10 09:21:09;;;;;;;;;;;;;;;12.54;53.79;93618.00;5130529;28;19931;-76
2021/04/10 09:23:35;;;;;;;;;;;;;;;12.50;53.18;93624.69;5130513;27;19984;-75
2021/04/10 09:26:08;;;;;;;;;;;;;;;12.36;53.82;93615.38;5130457;27;20382;-75
2021/04/10 09:28:34;;;;;;;;;;;;;;;12.13;56.39;93619.38;5130319;28;19930;-75
2021/04/10 09:31:00;;;;;;;;;;;;;;;12.35;55.12;93611.91;5124199;28;19923;-75
2021/04/10 09:33:35;;;;;;;;;;;;;;;12.53;53.70;93607.75;5116705;28;20454;-75
2021/04/10 09:36:04;;;;;;;;;;;;;;;12.65;55.27;93610.44;5116326;28;20340;-76
2021/04/10 09:38:39;;;;;;;;;;;;;;;12.65;55.05;93606.00;5116421;28;19973;-75
2021/04/10 09:41:05;;;;;;;;;;;;;;;12.88;54.10;93605.34;5116199;28;19924;-76
2021/04/10 09:43:32;;;;;;;;;;;;;;;12.87;52.74;93606.41;5116426;28;19992;-76
2021/04/10 09:45:58;;;;;;;;;;;;;;;12.54;52.36;93604.91;5116185;28;20466;-74
2021/04/10 09:48:42;;;;;;;;;;;;;;;12.35;53.23;93598.84;5116345;28;19928;-75
2021/04/10 09:51:13;;;;;;;;;;;;;;;12.58;54.77;93595.59;5116141;28;20006;-76
2021/04/10 09:53:39;;;;;;;;;;;;;;;12.64;55.51;93598.34;5116071;28;20379;-77
2021/04/10 09:56:10;;;;;;;;;;;;;;;12.87;53.67;93593.28;5116134;28;19924;-76
2021/04/10 09:58:40;;;;;;;;;;;;;;;12.88;55.00;93600.13;5116231;28;19928;-76
2021/04/10 10:01:07;;;;;;;;;;;;;;;12.81;52.97;93599.41;5116069;28;19953;-76
2021/04/10 10:03:33;;;;;;;;;;;;;;;12.66;51.93;93597.13;5115826;28;19924;-76
2021/04/10 10:06:00;;;;;;;;;;;;;;;12.79;54.95;93601.44;5115644;28;20452;-76
2021/04/10 10:08:27;;;;;;;;;;;;;;;12.70;52.00;93597.50;5115715;28;19924;-75
2021/04/10 10:10:55;;;;;;;;;;;;;;;12.65;52.66;93592.13;5115906;28;20011;-76
2021/04/10 10:13:21;;;;;;;;;;;;;;;12.80;52.96;93595.16;5115749;28;20004;-76
2021/04/10 10:15:50;;;;;;;;;;;;;;;13.15;49.74;93589.31;5115619;28;19946;-76
2021/04/10 10:18:16;;;;;;;;;;;;;;;13.33;51.23;93596.38;5115654;28;19924;-75
2021/04/10 10:20:52;;;;;;;;;;;;;;;13.33;52.40;93588.53;5115606;28;19938;-74
2021/04/10 10:23:18;;;;;;;;;;;;;;;13.41;50.22;93587.44;5115775;28;19927;-76
2021/04/10 10:25:44;;;;;;;;;;;;;;;13.48;53.44;93581.06;5115554;28;19949;-76
2021/04/10 10:28:12;;;;;;;;;;;;;;;13.80;51.02;93591.28;5115390;28;20306;-77
2021/04/10 10:30:38;;;;;;;;;;;;;;;13.51;49.43;93582.44;5115353;28;20289;-76
2021/04/10 10:33:06;;;;;;;;;;;;;;;14.03;50.09;93579.25;5115166;28;19931;-76
2021/04/10 10:35:33;;;;;;;;;;;;;;;14.02;48.38;93578.47;5115551;28;19927;-76
2021/04/10 10:38:03;;;;;;;;;;;;;;;13.43;48.38;93569.63;5115246;28;19923;-76
2021/04/10 10:40:29;;;;;;;;;;;;;;;13.22;49.88;93573.50;5115260;28;19966;-75
2021/04/10 10:42:58;;;;;;;;;;;;;;;13.48;53.40;93572.41;5114178;28;19971;-76
2021/04/10 10:45:37;;;;;;;;;;;;;;;13.65;50.49;93570.72;5115126;28;19924;-75
2021/04/10 10:48:14;;;;;;;;;;;;;;;13.64;49.87;93563.88;5114989;28;20428;-76
2021/04/10 10:50:40;;;;;;;;;;;;;;;13.79;49.98;93563.47;5115159;28;19938;-76
2021/04/10 10:53:13;;;;;;;;;;;;;;;13.90;50.45;93559.25;5115069;28;20523;-76
2021/04/10 10:55:53;;;;;;;;;;;;;;;13.86;47.19;93568.63;5114915;28;19924;-76
2021/04/10 10:58:19;;;;;;;;;;;;;;;13.84;49.70;93554.94;5114990;28;19931;-76
2021/04/10 11:00:45;;;;;;;;;;;;;;;13.78;47.76;93550.56;5115132;28;19993;-76
2021/04/10 11:03:19;;;;;;;;;;;;;;;13.78;50.53;93555.81;5114524;28;19927;-76
2021/04/10 11:05:45;;;;;;;;;;;;;;;14.11;48.31;93546.63;5114803;28;19968;-76
2021/04/10 11:08:12;;;;;;;;;;;;;;;14.39;47.57;93551.97;5114726;28;19928;-76
2021/04/10 11:10:38;;;;;;;;;;;;;;;14.92;46.41;93546.78;5114036;28;19924;-76
2021/04/10 11:13:05;;;;;;;;;;;;;;;15.14;44.71;93542.50;5114829;28;20397;-76
2021/04/10 11:15:30;;;;;;;;;;;;;;;15.31;42.55;93544.38;5114338;28;20684;-76
2021/04/10 11:17:57;;;;;;;;;;;;;;;14.99;45.90;93534.31;5113970;28;19931;-76
2021/04/10 11:20:33;;;;;;;;;;;;;;;15.42;44.19;93537.44;5114109;28;19924;-75
2021/04/10 11:23:06;;;;;;;;;;;;;;;15.59;43.39;93527.78;5114211;28;20308;-76
2021/04/10 11:25:48;;;;;;;;;;;;;;;15.94;41.72;93528.59;5114347;28;19928;-76
2021/04/10 11:28:27;;;;;;;;;;;;;;;15.61;47.10;93524.91;5114003;28;20014;-76
2021/04/10 11:31:05;;;;;;;;;;;;;;;15.41;42.43;93520.88;5114096;28;19976;-76
2021/04/10 11:33:31;;;;;;;;;;;;;;;15.36;41.51;93512.91;5114196;28;19928;-76
2021/04/10 11:36:03;;;;;;;;;;;;;;;15.48;42.37;93512.84;5114036;28;19967;-77
2021/04/10 11:38:29;;;;;;;;;;;;;;;15.67;43.28;93505.50;5114206;28;19924;-76
2021/04/10 11:40:55;;;;;;;;;;;;;;;16.04;42.27;93503.25;5113913;28;20396;-75
2021/04/10 11:43:21;;;;;;;;;;;;;;;15.67;40.15;93506.34;5114016;28;20023;-75
2021/04/10 11:45:49;;;;;;;;;;;;;;;15.71;41.96;93498.75;5114081;28;19934;-75
2021/04/10 11:48:16;;;;;;;;;;;;;;;15.70;42.41;93502.41;5113925;28;19924;-76
2021/04/10 11:50:43;;;;;;;;;;;;;;;15.51;40.81;93493.94;5113806;28;19976;-75
2021/04/10 11:53:14;;;;;;;;;;;;;;;15.42;44.90;93490.91;5113959;28;19924;-74
2021/04/10 11:55:40;;;;;;;;;;;;;;;15.22;44.82;93491.34;5113687;28;19985;-76
2021/04/10 11:58:06;;;;;;;;;;;;;;;14.98;44.06;93485.38;5113844;28;20370;-76
2021/04/10 12:00:31;;;;;;;;;;;;;;;15.17;48.88;93462.31;5113687;28;19924;-76
2021/04/10 12:03:05;;;;;;;;;;;;;;;15.32;46.93;93467.88;5113721;28;20022;-75
2021/04/10 12:05:35;;;;;;;;;;;;;;;15.57;44.56;93465.88;5113875;28;19927;-76
2021/04/10 12:08:11;;;;;;;;;;;;;;;15.60;48.29;93465.41;5113524;28;19930;-76
2021/04/10 12:10:38;;;;;;;;;;;;;;;15.18;44.11;93464.72;5113702;28;19931;-76
2021/04/10 12:13:04;;;;;;;;;;;;;;;14.83;42.41;93459.63;5113578;28;20286;-76
2021/04/10 12:15:31;;;;;;;;;;;;;;;14.88;42.79;93466.81;5113493;28;19928;-76
2021/04/10 12:17:57;;;;;;;;;;;;;;;15.03;41.88;93456.56;5113686;28;20290;-76
2021/04/10 12:20:23;;;;;;;;;;;;;;;15.06;42.11;93456.09;5113275;28;19924;-77
2021/04/10 12:22:49;;;;;;;;;;;;;;;15.18;46.10;93443.66;5113583;28;19924;-79
2021/04/10 12:25:15;;;;;;;;;;;;;;;15.53;45.34;93450.56;5113532;28;19924;-76
2021/04/10 12:27:42;;;;;;;;;;;;;;;15.67;43.21;93444.97;5113311;28;19974;-73
2021/04/10 12:30:08;;;;;;;;;;;;;;;15.39;43.32;93448.47;5113643;28;19928;-76
2021/04/10 12:32:34;;;;;;;;;;;;;;;15.58;43.93;93441.16;5113615;28;19931;-76
2021/04/10 12:35:00;;;;;;;;;;;;;;;15.91;42.79;93440.38;5113016;28;20014;-76
2021/04/10 12:37:25;;;;;;;;;;;;;;;15.85;43.01;93439.53;5113540;28;19977;-77
2021/04/10 12:39:51;;;;;;;;;;;;;;;15.72;40.64;93434.53;5113426;28;19927;-75
2021/04/10 12:42:17;;;;;;;;;;;;;;;15.67;41.10;93430.00;5113570;28;20372;-77
2021/04/10 12:44:44;;;;;;;;;;;;;;;15.78;40.73;93423.06;5113647;28;20401;-76
2021/04/10 12:47:13;;;;;;;;;;;;;;;15.87;44.70;93420.81;5113560;28;19924;-75
2021/04/10 12:49:39;;;;;;;;;;;;;;;16.14;44.70;93420.13;5113443;28;19924;-77
2021/04/10 12:52:05;;;;;;;;;;;;;;;15.99;39.83;93428.66;5113317;28;19923;-75
2021/04/10 12:54:31;;;;;;;;;;;;;;;15.73;41.95;93418.50;5113313;28;19928;-75
2021/04/10 12:56:56;;;;;;;;;;;;;;;16.01;40.01;93408.13;5113259;28;19923;-75